createdAt,value
2022-10-23T00:00:01.071Z,90.5
2022-10-23T00:01:01.234Z,90.4
2022-10-23T00:02:00.459Z,90.3
2022-10-23T00:03:00.646Z,90.3
2022-10-23T00:04:00.688Z,90.4
2022-10-23T00:05:00.824Z,90.4
2022-10-23T00:06:00.982Z,90.3
2022-10-23T00:07:01.134Z,90.3
2022-10-23T00:08:00.291Z,90.4
2022-10-23T00:09:00.429Z,90.5
2022-10-23T00:10:00.570Z,90.6
2022-10-23T00:11:00.717Z,90.7
2022-10-23T00:12:00.865Z,90.7
2022-10-23T00:13:01.014Z,90.7
2022-10-23T00:14:01.163Z,90.7
2022-10-23T00:15:00.282Z,90.7
2022-10-23T00:16:00.442Z,90.8
2022-10-23T00:17:00.581Z,90.9
2022-10-23T00:18:00.756Z,91
2022-10-23T00:19:00.882Z,91.1
2022-10-23T00:20:01.032Z,91.1
2022-10-23T00:21:01.176Z,91.3
2022-10-23T00:22:00.347Z,91.4
2022-10-23T00:23:00.487Z,91.5
2022-10-23T00:24:00.662Z,91.5
2022-10-23T00:25:00.766Z,91.4
2022-10-23T00:26:00.906Z,91.4
2022-10-23T00:27:01.060Z,91.4
2022-10-23T00:28:01.210Z,91.7
2022-10-23T00:29:00.354Z,91.7
2022-10-23T00:30:00.508Z,91.9
2022-10-23T00:31:00.652Z,92
2022-10-23T00:32:00.790Z,92
2022-10-23T00:33:00.985Z,92
2022-10-23T00:34:01.100Z,91.9
2022-10-23T00:35:01.241Z,91.8
2022-10-23T00:36:00.388Z,91.7
2022-10-23T00:37:00.539Z,91.7
2022-10-23T00:38:00.705Z,91.7
2022-10-23T00:39:00.856Z,91.7
2022-10-23T00:40:00.986Z,91.7
2022-10-23T00:41:01.131Z,91.7
2022-10-23T00:42:00.272Z,91.6
2022-10-23T00:43:00.421Z,91.6
2022-10-23T00:44:00.591Z,91.6
2022-10-23T00:45:00.709Z,91.6
2022-10-23T00:46:00.881Z,91.6
2022-10-23T00:47:01.011Z,91.6
2022-10-23T00:48:01.153Z,91.6
2022-10-23T00:49:00.394Z,91.6
2022-10-23T00:50:00.446Z,91.6
2022-10-23T00:51:00.587Z,91.6
2022-10-23T00:52:00.729Z,91.6
2022-10-23T00:53:00.878Z,91.7
2022-10-23T00:54:12.802Z,91.7
2022-10-23T00:55:01.179Z,91.7
2022-10-23T00:56:00.350Z,91.7
2022-10-23T00:57:00.462Z,91.7
2022-10-23T00:58:00.609Z,91.6
2022-10-23T00:59:00.749Z,91.6
2022-10-23T01:00:00.905Z,91.6
2022-10-23T01:01:01.121Z,91.6
2022-10-23T01:02:01.421Z,91.6
2022-10-23T01:03:00.342Z,91.7
2022-10-23T01:04:00.491Z,91.7
2022-10-23T01:05:00.645Z,91.7
2022-10-23T01:06:00.807Z,91.6
2022-10-23T01:07:00.952Z,91.6
2022-10-23T01:08:01.083Z,91.6
2022-10-23T01:09:01.234Z,91.7
2022-10-23T01:10:00.391Z,91.7
2022-10-23T01:11:00.548Z,91.8
2022-10-23T01:12:00.702Z,91.8
2022-10-23T01:13:00.829Z,91.8
2022-10-23T01:14:00.976Z,91.8
2022-10-23T01:15:01.128Z,91.7
2022-10-23T01:16:00.267Z,91.7
2022-10-23T01:17:00.429Z,91.7
2022-10-23T01:18:00.563Z,91.8
2022-10-23T01:19:00.708Z,91.8
2022-10-23T01:20:00.868Z,91.8
2022-10-23T01:21:01.010Z,91.9
2022-10-23T01:22:01.183Z,92
2022-10-23T01:23:00.297Z,92
2022-10-23T01:24:00.448Z,92.1
2022-10-23T01:25:00.605Z,92.1
2022-10-23T01:26:00.756Z,92.1
2022-10-23T01:27:00.913Z,92
2022-10-23T01:28:01.076Z,92
2022-10-23T01:29:01.203Z,91.9
2022-10-23T01:30:00.346Z,91.9
2022-10-23T01:31:00.493Z,91.9
2022-10-23T01:32:00.637Z,91.9
2022-10-23T01:33:00.818Z,92
2022-10-23T01:34:00.985Z,92
2022-10-23T01:35:01.093Z,92.1
2022-10-23T01:36:01.238Z,92
2022-10-23T01:37:00.391Z,92
2022-10-23T01:38:00.543Z,92
2022-10-23T01:39:00.777Z,92
2022-10-23T01:40:00.826Z,91.9
2022-10-23T01:41:00.978Z,91.9
2022-10-23T01:42:01.138Z,91.9
2022-10-23T01:43:00.276Z,92
2022-10-23T01:44:00.440Z,92
2022-10-23T01:45:00.571Z,92
2022-10-23T01:46:00.719Z,92
2022-10-23T01:47:00.869Z,91.8
2022-10-23T01:48:01.016Z,91.8
2022-10-23T01:49:01.183Z,91.8
2022-10-23T01:50:00.305Z,91.9
2022-10-23T01:51:00.447Z,91.9
2022-10-23T01:52:00.603Z,92
2022-10-23T01:53:00.747Z,92.1
2022-10-23T01:54:00.910Z,92.2
2022-10-23T01:55:01.031Z,92.1
2022-10-23T01:56:01.204Z,92
2022-10-23T01:57:00.346Z,92
2022-10-23T01:58:00.485Z,92
2022-10-23T01:59:00.657Z,91.9
2022-10-23T02:00:00.779Z,91.9
2022-10-23T02:01:00.954Z,91.8
2022-10-23T02:02:01.279Z,91.9
2022-10-23T02:03:01.223Z,91.8
2022-10-23T02:04:00.411Z,91.8
2022-10-23T02:05:00.518Z,91.8
2022-10-23T02:06:00.663Z,91.8
2022-10-23T02:07:00.819Z,91.9
2022-10-23T02:08:00.965Z,91.9
2022-10-23T02:09:01.150Z,91.8
2022-10-23T02:10:00.268Z,91.8
2022-10-23T02:11:00.425Z,91.8
2022-10-23T02:12:00.583Z,91.7
2022-10-23T02:13:00.710Z,91.8
2022-10-23T02:14:00.918Z,91.6
2022-10-23T02:15:01.018Z,91.7
2022-10-23T02:16:01.143Z,91.8
2022-10-23T02:17:00.302Z,91.9
2022-10-23T02:18:00.466Z,92
2022-10-23T02:19:00.590Z,92
2022-10-23T02:20:00.738Z,91.9
2022-10-23T02:21:00.890Z,91.9
2022-10-23T02:22:01.042Z,91.9
2022-10-23T02:23:01.218Z,91.8
2022-10-23T02:24:00.329Z,91.8
2022-10-23T02:25:00.488Z,91.9
2022-10-23T02:26:00.638Z,91.8
2022-10-23T02:27:00.790Z,91.9
2022-10-23T02:28:00.969Z,92
2022-10-23T02:29:01.188Z,92.1
2022-10-23T02:30:01.225Z,92.1
2022-10-23T02:31:00.370Z,92.2
2022-10-23T02:32:00.516Z,92
2022-10-23T02:33:00.673Z,92
2022-10-23T02:34:00.854Z,92.1
2022-10-23T02:35:00.959Z,92
2022-10-23T02:36:01.127Z,92.1
2022-10-23T02:37:00.259Z,92.1
2022-10-23T02:38:00.416Z,92.1
2022-10-23T02:39:00.576Z,92
2022-10-23T02:40:00.699Z,92
2022-10-23T02:41:00.840Z,91.9
2022-10-23T02:42:01.003Z,91.9
2022-10-23T02:43:01.139Z,92
2022-10-23T02:44:00.310Z,92
2022-10-23T02:45:00.434Z,92
2022-10-23T02:46:00.585Z,91.9
2022-10-23T02:47:00.739Z,91.9
2022-10-23T02:48:00.893Z,91.9
2022-10-23T02:49:01.050Z,91.8
2022-10-23T02:50:01.182Z,91.8
2022-10-23T02:51:00.324Z,91.8
2022-10-23T02:52:00.482Z,91.9
2022-10-23T02:53:00.623Z,91.9
2022-10-23T02:54:00.810Z,91.9
2022-10-23T02:55:00.948Z,92
2022-10-23T02:56:01.078Z,92
2022-10-23T02:57:01.215Z,92
2022-10-23T02:58:00.373Z,92.1
2022-10-23T02:59:00.519Z,92.1
2022-10-23T03:00:00.675Z,92.1
2022-10-23T03:01:00.874Z,92.1
2022-10-23T03:02:01.051Z,92.1
2022-10-23T03:03:01.143Z,92.1
2022-10-23T03:04:00.264Z,92.1
2022-10-23T03:05:00.406Z,92.2
2022-10-23T03:06:00.588Z,92.2
2022-10-23T03:07:00.711Z,92.2
2022-10-23T03:08:00.860Z,92.2
2022-10-23T03:09:01.017Z,92.2
2022-10-23T03:10:01.152Z,92.2
2022-10-23T03:11:00.328Z,92.2
2022-10-23T03:12:00.443Z,92.2
2022-10-23T03:13:00.599Z,92.3
2022-10-23T03:14:00.744Z,92.2
2022-10-23T03:15:00.909Z,92.2
2022-10-23T03:16:01.059Z,92.2
2022-10-23T03:17:01.198Z,92.2
2022-10-23T03:18:00.348Z,92.2
2022-10-23T03:19:00.529Z,92.2
2022-10-23T03:20:00.634Z,92.2
2022-10-23T03:21:00.809Z,92.2
2022-10-23T03:22:00.960Z,92.2
2022-10-23T03:23:01.080Z,92.2
2022-10-23T03:24:01.237Z,92.2
2022-10-23T03:25:00.373Z,92.2
2022-10-23T03:26:00.518Z,92.2
2022-10-23T03:27:00.693Z,92.2
2022-10-23T03:28:00.828Z,92.2
2022-10-23T03:29:00.979Z,92.2
2022-10-23T03:30:01.124Z,92.3
2022-10-23T03:31:00.250Z,92.3
2022-10-23T03:32:00.429Z,92.3
2022-10-23T03:33:00.545Z,92.3
2022-10-23T03:34:02.235Z,92.4
2022-10-23T03:35:00.847Z,92.4
2022-10-23T03:36:00.994Z,92.4
2022-10-23T03:37:01.151Z,92.4
2022-10-23T03:38:00.281Z,92.4
2022-10-23T03:39:00.447Z,92.3
2022-10-23T03:40:00.581Z,92.3
2022-10-23T03:41:00.741Z,92.3
2022-10-23T03:42:00.880Z,92.3
2022-10-23T03:43:01.018Z,92.2
2022-10-23T03:44:01.277Z,92.2
2022-10-23T03:45:00.306Z,92.3
2022-10-23T03:46:00.457Z,92.3
2022-10-23T03:47:00.598Z,92.3
2022-10-23T03:48:00.776Z,92.4
2022-10-23T03:49:00.906Z,92.5
2022-10-23T03:50:01.051Z,92.6
2022-10-23T03:51:01.193Z,92.7
2022-10-23T03:52:00.321Z,92.7
2022-10-23T03:53:00.493Z,92.6
2022-10-23T03:54:00.645Z,92.5
2022-10-23T03:55:00.778Z,92.4
2022-10-23T03:56:00.916Z,92.4
2022-10-23T03:57:01.072Z,92.3
2022-10-23T03:58:01.206Z,92.3
2022-10-23T03:59:00.372Z,92.3
2022-10-23T04:00:00.512Z,92.4
2022-10-23T04:01:00.764Z,92.3
2022-10-23T04:02:00.977Z,92.4
2022-10-23T04:03:00.947Z,92.3
2022-10-23T04:04:01.106Z,92.3
2022-10-23T04:05:01.261Z,92.3
2022-10-23T04:06:00.382Z,92.4
2022-10-23T04:07:00.536Z,92.4
2022-10-23T04:08:00.690Z,92.4
2022-10-23T04:09:00.957Z,92.4
2022-10-23T04:10:01.032Z,92.4
2022-10-23T04:11:01.158Z,92.3
2022-10-23T04:12:00.311Z,92.2
2022-10-23T04:13:00.453Z,92.3
2022-10-23T04:14:00.603Z,92.3
2022-10-23T04:15:00.776Z,92.3
2022-10-23T04:16:00.906Z,92.3
2022-10-23T04:17:01.037Z,92.3
2022-10-23T04:18:01.179Z,92.3
2022-10-23T04:19:00.329Z,92.3
2022-10-23T04:20:00.490Z,92.3
2022-10-23T04:21:00.644Z,92.3
2022-10-23T04:22:00.767Z,92.2
2022-10-23T04:23:00.932Z,92.3
2022-10-23T04:24:01.063Z,92.3
2022-10-23T04:25:01.224Z,92.3
2022-10-23T04:26:00.379Z,92.3
2022-10-23T04:27:00.510Z,92.3
2022-10-23T04:28:00.652Z,92.3
2022-10-23T04:29:00.813Z,92.3
2022-10-23T04:30:00.964Z,92.3
2022-10-23T04:31:01.137Z,92.3
2022-10-23T04:32:00.267Z,92.3
2022-10-23T04:33:00.419Z,92.3
2022-10-23T04:34:00.588Z,92.3
2022-10-23T04:35:00.720Z,92.3
2022-10-23T04:36:00.882Z,92.3
2022-10-23T04:37:01.003Z,92.3
2022-10-23T04:38:01.155Z,92.4
2022-10-23T04:39:00.295Z,92.4
2022-10-23T04:40:00.454Z,92.5
2022-10-23T04:41:00.618Z,92.5
2022-10-23T04:42:00.738Z,92.5
2022-10-23T04:43:00.899Z,92.5
2022-10-23T04:44:01.043Z,92.4
2022-10-23T04:45:01.181Z,92.4
2022-10-23T04:46:00.358Z,92.5
2022-10-23T04:47:00.475Z,92.5
2022-10-23T04:48:00.629Z,92.6
2022-10-23T04:49:00.776Z,92.6
2022-10-23T04:50:00.917Z,92.6
2022-10-23T04:51:01.108Z,92.7
2022-10-23T04:52:01.252Z,92.7
2022-10-23T04:53:00.379Z,92.7
2022-10-23T04:54:00.531Z,92.6
2022-10-23T04:55:00.679Z,92.6
2022-10-23T04:56:00.829Z,92.6
2022-10-23T04:57:00.986Z,92.6
2022-10-23T04:58:01.117Z,92.6
2022-10-23T04:59:00.318Z,92.6
2022-10-23T05:00:00.417Z,92.6
2022-10-23T05:01:00.710Z,92.6
2022-10-23T05:02:00.741Z,92.6
2022-10-23T05:03:00.864Z,92.6
2022-10-23T05:04:01.013Z,92.6
2022-10-23T05:05:01.155Z,92.6
2022-10-23T05:06:00.298Z,92.5
2022-10-23T05:07:00.474Z,92.5
2022-10-23T05:08:00.607Z,92.5
2022-10-23T05:09:00.759Z,92.5
2022-10-23T05:10:00.909Z,92.5
2022-10-23T05:11:01.067Z,92.5
2022-10-23T05:12:01.249Z,92.5
2022-10-23T05:13:00.360Z,92.5
2022-10-23T05:14:00.505Z,92.5
2022-10-23T05:15:00.654Z,92.5
2022-10-23T05:16:00.798Z,92.5
2022-10-23T05:17:00.965Z,92.5
2022-10-23T05:18:01.123Z,92.6
2022-10-23T05:19:01.247Z,92.6
2022-10-23T05:20:00.399Z,92.5
2022-10-23T05:21:00.542Z,92.5
2022-10-23T05:22:00.699Z,92.6
2022-10-23T05:23:00.878Z,92.6
2022-10-23T05:24:01.039Z,92.6
2022-10-23T05:25:01.161Z,92.6
2022-10-23T05:26:00.303Z,92.6
2022-10-23T05:27:00.448Z,92.6
2022-10-23T05:28:00.614Z,92.6
2022-10-23T05:29:00.738Z,92.6
2022-10-23T05:30:00.899Z,92.6
2022-10-23T05:31:01.028Z,92.6
2022-10-23T05:32:01.181Z,92.7
2022-10-23T05:33:00.354Z,92.7
2022-10-23T05:34:00.474Z,92.7
2022-10-23T05:35:00.623Z,92.7
2022-10-23T05:36:00.762Z,92.7
2022-10-23T05:37:00.908Z,92.7
2022-10-23T05:38:01.086Z,92.7
2022-10-23T05:39:01.220Z,92.8
2022-10-23T05:40:00.360Z,92.8
2022-10-23T05:41:00.502Z,92.8
2022-10-23T05:42:00.658Z,92.7
2022-10-23T05:43:00.832Z,92.7
2022-10-23T05:44:00.969Z,92.6
2022-10-23T05:45:01.105Z,92.6
2022-10-23T05:46:01.250Z,92.6
2022-10-23T05:47:00.392Z,92.6
2022-10-23T05:48:10.883Z,92.7
2022-10-23T05:49:00.718Z,92.7
2022-10-23T05:50:00.834Z,92.7
2022-10-23T05:51:00.977Z,92.7
2022-10-23T05:52:01.129Z,92.8
2022-10-23T05:53:00.282Z,92.8
2022-10-23T05:54:00.439Z,92.9
2022-10-23T05:55:00.565Z,92.9
2022-10-23T05:56:00.707Z,92.9
2022-10-23T05:57:00.869Z,92.9
2022-10-23T05:58:01.003Z,92.9
2022-10-23T05:59:01.160Z,93
2022-10-23T06:00:00.293Z,93
2022-10-23T06:01:00.539Z,93
2022-10-23T06:02:00.676Z,93.1
2022-10-23T06:03:00.734Z,93.1
2022-10-23T06:04:00.914Z,93.2
2022-10-23T06:05:01.044Z,93.2
2022-10-23T06:06:01.178Z,93.3
2022-10-23T06:07:00.342Z,93.3
2022-10-23T06:08:00.478Z,93.3
2022-10-23T06:09:00.659Z,93.3
2022-10-23T06:10:00.817Z,93.3
2022-10-23T06:11:00.959Z,93.4
2022-10-23T06:12:01.096Z,93.4
2022-10-23T06:13:01.233Z,93.3
2022-10-23T06:14:00.382Z,93.3
2022-10-23T06:15:00.559Z,93.3
2022-10-23T06:16:00.673Z,93.2
2022-10-23T06:17:00.830Z,93.2
2022-10-23T06:18:00.973Z,93.4
2022-10-23T06:19:01.120Z,93.5
2022-10-23T06:20:00.285Z,93.5
2022-10-23T06:21:00.425Z,93.4
2022-10-23T06:22:00.567Z,93.4
2022-10-23T06:23:00.709Z,93.4
2022-10-23T06:24:00.856Z,93.6
2022-10-23T06:25:01.035Z,93.7
2022-10-23T06:26:01.149Z,93.6
2022-10-23T06:27:00.301Z,93.6
2022-10-23T06:28:00.446Z,93.7
2022-10-23T06:29:00.601Z,93.6
2022-10-23T06:30:00.755Z,93.6
2022-10-23T06:31:00.884Z,93.6
2022-10-23T06:32:01.028Z,93.5
2022-10-23T06:33:03.367Z,93.5
2022-10-23T06:34:00.326Z,93.5
2022-10-23T06:35:00.506Z,93.5
2022-10-23T06:36:00.613Z,93.5
2022-10-23T06:37:00.755Z,93.5
2022-10-23T06:38:00.898Z,93.5
2022-10-23T06:39:01.052Z,93.6
2022-10-23T06:40:01.226Z,93.5
2022-10-23T06:41:00.338Z,93.5
2022-10-23T06:42:00.492Z,93.6
2022-10-23T06:43:00.645Z,93.7
2022-10-23T06:44:00.790Z,93.7
2022-10-23T06:45:04.783Z,93.7
2022-10-23T06:46:01.103Z,93.7
2022-10-23T06:47:01.227Z,93.7
2022-10-23T06:48:00.371Z,93.7
2022-10-23T06:49:00.530Z,93.7
2022-10-23T06:50:00.672Z,93.7
2022-10-23T06:51:00.838Z,93.7
2022-10-23T06:52:00.965Z,93.8
2022-10-23T06:53:01.106Z,93.8
2022-10-23T06:54:01.241Z,93.8
2022-10-23T06:55:00.388Z,93.8
2022-10-23T06:56:00.551Z,93.9
2022-10-23T06:57:00.729Z,93.9
2022-10-23T06:58:00.834Z,93.9
2022-10-23T06:59:00.979Z,93.9
2022-10-23T07:00:01.123Z,94
2022-10-23T07:01:00.363Z,94
2022-10-23T07:02:00.449Z,94.1
2022-10-23T07:03:00.556Z,94.2
2022-10-23T07:04:00.702Z,94.3
2022-10-23T07:05:00.860Z,94.3
2022-10-23T07:06:01.007Z,94.3
2022-10-23T07:07:01.177Z,94.3
2022-10-23T07:08:00.310Z,94.3
2022-10-23T07:09:00.451Z,94.4
2022-10-23T07:10:00.649Z,94.5
2022-10-23T07:11:00.762Z,94.5
2022-10-23T07:12:00.950Z,94.5
2022-10-23T07:13:01.332Z,94.5
2022-10-23T07:14:01.218Z,94.4
2022-10-23T07:15:00.362Z,94.4
2022-10-23T07:16:00.522Z,94.4
2022-10-23T07:17:00.700Z,94.4
2022-10-23T07:18:00.827Z,94.5
2022-10-23T07:19:00.971Z,94.5
2022-10-23T07:20:01.114Z,94.5
2022-10-23T07:21:00.257Z,94.4
2022-10-23T07:22:00.418Z,94.4
2022-10-23T07:23:00.563Z,94.4
2022-10-23T07:24:00.702Z,94.5
2022-10-23T07:25:00.853Z,94.5
2022-10-23T07:26:01.031Z,94.5
2022-10-23T07:27:01.148Z,94.5
2022-10-23T07:28:00.298Z,94.5
2022-10-23T07:29:00.447Z,94.4
2022-10-23T07:30:00.592Z,94.4
2022-10-23T07:31:00.755Z,94.4
2022-10-23T07:32:00.873Z,94.3
2022-10-23T07:33:01.036Z,94.4
2022-10-23T07:34:01.169Z,94.5
2022-10-23T07:35:00.463Z,94.4
2022-10-23T07:36:00.495Z,94.4
2022-10-23T07:37:00.616Z,94.5
2022-10-23T07:38:00.779Z,94.5
2022-10-23T07:39:00.924Z,94.5
2022-10-23T07:40:01.068Z,94.5
2022-10-23T07:41:01.233Z,94.5
2022-10-23T07:42:00.343Z,94.5
2022-10-23T07:43:00.502Z,94.5
2022-10-23T07:44:00.658Z,94.5
2022-10-23T07:45:00.804Z,94.5
2022-10-23T07:46:00.962Z,94.5
2022-10-23T07:47:01.107Z,94.5
2022-10-23T07:48:01.233Z,94.5
2022-10-23T07:49:00.376Z,94.5
2022-10-23T07:50:00.527Z,94.5
2022-10-23T07:51:00.679Z,94.5
2022-10-23T07:52:00.911Z,94.4
2022-10-23T07:53:00.983Z,94.4
2022-10-23T07:54:01.143Z,94.4
2022-10-23T07:55:00.280Z,94.5
2022-10-23T07:56:00.430Z,94.4
2022-10-23T07:57:00.595Z,94.5
2022-10-23T07:58:00.757Z,94.5
2022-10-23T07:59:00.875Z,94.4
2022-10-23T08:00:01.032Z,94.5
2022-10-23T08:01:01.244Z,94.5
2022-10-23T08:02:00.423Z,94.5
2022-10-23T08:03:00.478Z,94.5
2022-10-23T08:04:00.596Z,94.5
2022-10-23T08:05:00.733Z,94.5
2022-10-23T08:06:00.877Z,94.6
2022-10-23T08:07:01.027Z,94.5
2022-10-23T08:08:01.205Z,94.4
2022-10-23T08:09:03.697Z,94.4
2022-10-23T08:10:00.472Z,94.4
2022-10-23T08:11:00.624Z,94.5
2022-10-23T08:12:00.764Z,94.4
2022-10-23T08:13:00.951Z,94.4
2022-10-23T08:14:01.078Z,94.3
2022-10-23T08:15:01.216Z,94.3
2022-10-23T08:16:00.361Z,94.3
2022-10-23T08:17:03.434Z,94.3
2022-10-23T08:18:00.679Z,94.3
2022-10-23T08:19:00.797Z,94.2
2022-10-23T08:20:00.944Z,94.1
2022-10-23T08:21:01.097Z,94
2022-10-23T08:22:01.258Z,93.9
2022-10-23T08:23:00.413Z,93.9
2022-10-23T08:24:00.546Z,93.8
2022-10-23T08:25:00.690Z,93.7
2022-10-23T08:26:00.854Z,93.5
2022-10-23T08:27:00.991Z,93.4
2022-10-23T08:28:04.226Z,93.3
2022-10-23T08:29:00.297Z,93.1
2022-10-23T08:30:00.453Z,93
2022-10-23T08:31:00.609Z,92.9
2022-10-23T08:32:00.747Z,92.7
2022-10-23T08:33:00.920Z,92.5
2022-10-23T08:34:01.065Z,92.5
2022-10-23T08:35:01.199Z,92.4
2022-10-23T08:36:00.353Z,92.4
2022-10-23T08:37:00.488Z,92.4
2022-10-23T08:38:00.650Z,92.4
2022-10-23T08:39:00.797Z,92.5
2022-10-23T08:40:00.941Z,92.3
2022-10-23T08:41:01.085Z,92.1
2022-10-23T08:42:01.287Z,92
2022-10-23T08:43:00.371Z,91.9
2022-10-23T08:44:00.538Z,91.8
2022-10-23T08:45:00.671Z,91.7
2022-10-23T08:46:00.823Z,91.7
2022-10-23T08:47:00.960Z,91.7
2022-10-23T08:48:01.110Z,91.6
2022-10-23T08:49:00.292Z,91.6
2022-10-23T08:50:00.397Z,91.5
2022-10-23T08:51:00.551Z,91.5
2022-10-23T08:52:00.704Z,91.5
2022-10-23T08:53:00.847Z,91.5
2022-10-23T08:54:01.024Z,91.5
2022-10-23T08:55:01.169Z,91.5
2022-10-23T08:56:00.283Z,91.5
2022-10-23T08:57:00.445Z,91.6
2022-10-23T08:58:00.573Z,91.6
2022-10-23T08:59:00.722Z,91.6
2022-10-23T09:00:00.887Z,91.7
2022-10-23T09:01:01.131Z,91.8
2022-10-23T09:02:01.277Z,91.9
2022-10-23T09:03:00.319Z,91.9
2022-10-23T09:04:00.470Z,92
2022-10-23T09:05:00.626Z,91.9
2022-10-23T09:06:00.755Z,91.9
2022-10-23T09:07:00.987Z,91.9
2022-10-23T09:08:01.054Z,91.9
2022-10-23T09:09:01.206Z,91.7
2022-10-23T09:10:00.360Z,91.5
2022-10-23T09:11:00.501Z,91.3
2022-10-23T09:12:00.652Z,91.1
2022-10-23T09:13:00.789Z,91
2022-10-23T09:14:00.940Z,90.9
2022-10-23T09:15:01.116Z,90.8
2022-10-23T09:16:01.235Z,90.6
2022-10-23T09:17:00.365Z,90.3
2022-10-23T09:18:00.505Z,90
2022-10-23T09:19:00.664Z,89.9
2022-10-23T09:20:00.814Z,89.6
2022-10-23T09:21:00.980Z,89.2
2022-10-23T09:22:01.104Z,88.8
2022-10-23T09:23:00.249Z,88.6
2022-10-23T09:24:00.425Z,88.3
2022-10-23T09:25:00.549Z,88
2022-10-23T09:26:00.703Z,87.8
2022-10-23T09:27:00.901Z,87.7
2022-10-23T09:28:01.548Z,87.8
2022-10-23T09:29:01.146Z,88
2022-10-23T09:30:00.292Z,87.9
2022-10-23T09:31:00.445Z,87.6
2022-10-23T09:32:00.575Z,87.3
2022-10-23T09:33:00.724Z,87
2022-10-23T09:34:00.854Z,86.7
2022-10-23T09:35:01.019Z,86.6
2022-10-23T09:36:01.173Z,87.3
2022-10-23T09:37:00.291Z,87.4
2022-10-23T09:38:00.428Z,87.2
2022-10-23T09:39:00.582Z,86.7
2022-10-23T09:40:00.735Z,86.6
2022-10-23T09:41:00.898Z,86.7
2022-10-23T09:42:01.028Z,87.5
2022-10-23T09:43:01.168Z,87.6
2022-10-23T09:44:00.315Z,86.6
2022-10-23T09:45:00.455Z,86.3
2022-10-23T09:46:00.627Z,86.6
2022-10-23T09:47:00.758Z,86.2
2022-10-23T09:48:00.892Z,85.9
2022-10-23T09:49:03.599Z,85.8
2022-10-23T09:50:01.196Z,85.5
2022-10-23T09:51:00.373Z,85
2022-10-23T09:52:00.490Z,85
2022-10-23T09:53:00.638Z,84.1
2022-10-23T09:54:00.776Z,84.2
2022-10-23T09:55:00.927Z,84.6
2022-10-23T09:56:01.108Z,84.1
2022-10-23T09:57:01.213Z,83.7
2022-10-23T09:58:00.372Z,83.1
2022-10-23T09:59:00.516Z,82.8
2022-10-23T10:00:00.660Z,82
2022-10-23T10:01:00.983Z,82.7
2022-10-23T10:02:01.136Z,82.8
2022-10-23T10:03:01.120Z,82.1
2022-10-23T10:04:01.248Z,82.1
2022-10-23T10:05:00.393Z,82.3
2022-10-23T10:06:00.548Z,82.6
2022-10-23T10:07:00.714Z,82.7
2022-10-23T10:08:00.845Z,82
2022-10-23T10:09:00.982Z,81
2022-10-23T10:10:01.146Z,81.1
2022-10-23T10:11:00.280Z,81.5
2022-10-23T10:12:00.445Z,81.7
2022-10-23T10:13:00.568Z,81.6
2022-10-23T10:14:00.721Z,81.1
2022-10-23T10:15:00.855Z,81.8
2022-10-23T10:16:01.006Z,81.4
2022-10-23T10:17:01.162Z,81.1
2022-10-23T10:18:00.295Z,81.3
2022-10-23T10:19:00.440Z,80.9
2022-10-23T10:20:03.862Z,81
2022-10-23T10:21:00.721Z,81.3
2022-10-23T10:22:00.900Z,80.9
2022-10-23T10:23:01.037Z,81.3
2022-10-23T10:24:01.184Z,81.5
2022-10-23T10:25:00.335Z,81.5
2022-10-23T10:26:00.487Z,81.4
2022-10-23T10:27:00.667Z,80.9
2022-10-23T10:28:00.804Z,81.3
2022-10-23T10:29:00.941Z,81.7
2022-10-23T10:30:01.086Z,81.3
2022-10-23T10:31:01.227Z,80.7
2022-10-23T10:32:00.420Z,81.3
2022-10-23T10:33:00.546Z,81.3
2022-10-23T10:34:00.694Z,81.7
2022-10-23T10:35:00.835Z,81.6
2022-10-23T10:36:00.982Z,81.6
2022-10-23T10:37:01.167Z,81.8
2022-10-23T10:38:00.275Z,81.5
2022-10-23T10:39:00.424Z,81.3
2022-10-23T10:40:00.570Z,81.3
2022-10-23T10:41:00.718Z,81.3
2022-10-23T10:42:00.880Z,81.4
2022-10-23T10:43:01.036Z,81.4
2022-10-23T10:44:01.151Z,81.5
2022-10-23T10:45:00.299Z,81.2
2022-10-23T10:46:00.456Z,81.2
2022-10-23T10:47:00.605Z,81.2
2022-10-23T10:48:00.773Z,81.4
2022-10-23T10:49:00.905Z,81.3
2022-10-23T10:50:01.046Z,81.3
2022-10-23T10:51:01.196Z,80.8
2022-10-23T10:52:00.343Z,80.6
2022-10-23T10:53:00.498Z,80.9
2022-10-23T10:54:00.681Z,81.2
2022-10-23T10:55:00.793Z,81.3
2022-10-23T10:56:00.983Z,80.8
2022-10-23T10:57:01.082Z,81.2
2022-10-23T10:58:01.257Z,81.3
2022-10-23T10:59:00.399Z,81
2022-10-23T11:00:00.552Z,80.7
2022-10-23T11:01:00.824Z,81
2022-10-23T11:02:00.925Z,80.7
2022-10-23T11:03:00.976Z,80.9
2022-10-23T11:04:01.114Z,81
2022-10-23T11:05:01.292Z,80.8
2022-10-23T11:07:00.548Z,81.2
2022-10-23T11:08:00.692Z,80.7
2022-10-23T11:09:19.447Z,80.6
2022-10-23T11:10:01.007Z,80.4
2022-10-23T11:11:01.144Z,80
2022-10-23T11:12:00.276Z,79.2
2022-10-23T11:13:00.420Z,79.3
2022-10-23T11:14:00.580Z,79.4
2022-10-23T11:15:00.740Z,79.6
2022-10-23T11:16:00.864Z,79.3
2022-10-23T11:17:01.011Z,79.6
2022-10-23T11:18:01.166Z,79.3
2022-10-23T11:19:00.312Z,79.8
2022-10-23T11:20:00.485Z,79.8
2022-10-23T11:21:00.603Z,80.1
2022-10-23T11:22:00.758Z,79.8
2022-10-23T11:23:00.896Z,79.9
2022-10-23T11:24:01.092Z,80
2022-10-23T11:25:01.232Z,79.6
2022-10-23T11:26:00.342Z,79
2022-10-23T11:27:00.498Z,80.6
2022-10-23T11:28:03.686Z,81.3
2022-10-23T11:29:00.789Z,80.9
2022-10-23T11:30:00.957Z,80.3
2022-10-23T11:31:01.114Z,79.8
2022-10-23T11:32:01.227Z,80.5
2022-10-23T11:33:00.382Z,81.2
2022-10-23T11:34:00.521Z,80.4
2022-10-23T11:35:00.670Z,80.4
2022-10-23T11:36:00.840Z,80.8
2022-10-23T11:37:00.958Z,79.4
2022-10-23T11:38:01.116Z,77.7
2022-10-23T11:39:00.255Z,76.8
2022-10-23T11:40:00.400Z,76.9
2022-10-23T11:41:00.582Z,76.6
2022-10-23T11:42:00.700Z,76.1
2022-10-23T11:43:00.846Z,74.8
2022-10-23T11:44:01.005Z,75
2022-10-23T11:45:01.149Z,75.2
2022-10-23T11:46:00.307Z,75.4
2022-10-23T11:47:00.442Z,75.4
2022-10-23T11:48:00.584Z,75.2
2022-10-23T11:49:00.751Z,75.7
2022-10-23T11:50:00.877Z,75.5
2022-10-23T11:51:04.253Z,75.6
2022-10-23T11:52:01.169Z,76
2022-10-23T11:53:13.586Z,75.9
2022-10-23T11:54:00.467Z,75.9
2022-10-23T11:55:00.615Z,76.1
2022-10-23T11:56:00.773Z,76.1
2022-10-23T11:57:00.915Z,76
2022-10-23T11:58:01.058Z,76.7
2022-10-23T11:59:01.209Z,76.5
2022-10-23T12:00:00.359Z,76.7
2022-10-23T12:01:00.567Z,75.5
2022-10-23T12:02:00.787Z,75.9
2022-10-23T12:03:00.864Z,76
2022-10-23T12:04:00.950Z,75.9
2022-10-23T12:05:01.096Z,76.2
2022-10-23T12:06:01.269Z,75.5
2022-10-23T12:07:00.411Z,76.3
2022-10-23T12:08:00.546Z,76
2022-10-23T12:09:00.698Z,75.7
2022-10-23T12:10:00.842Z,75.2
2022-10-23T12:11:00.990Z,75.2
2022-10-23T12:12:01.170Z,75.4
2022-10-23T12:13:00.299Z,76.1
2022-10-23T12:14:00.514Z,75.8
2022-10-23T12:15:00.590Z,76
2022-10-23T12:16:01.195Z,75.8
2022-10-23T12:17:00.913Z,74.8
2022-10-23T12:18:01.039Z,75.5
2022-10-23T12:19:01.171Z,76.3
2022-10-23T12:20:00.308Z,75.9
2022-10-23T12:21:00.469Z,75.9
2022-10-23T12:22:00.626Z,75.5
2022-10-23T12:23:00.760Z,75.3
2022-10-23T12:24:00.909Z,75.2
2022-10-23T12:25:01.052Z,75.3
2022-10-23T12:26:01.217Z,75.4
2022-10-23T12:27:00.346Z,75.7
2022-10-23T12:28:00.505Z,75
2022-10-23T12:29:00.634Z,75.3
2022-10-23T12:30:00.788Z,76.2
2022-10-23T12:31:00.950Z,75
2022-10-23T12:32:01.107Z,75.8
2022-10-23T12:33:01.246Z,75
2022-10-23T12:34:00.391Z,76.3
2022-10-23T12:35:00.533Z,75.3
2022-10-23T12:36:00.691Z,74.7
2022-10-23T12:37:00.857Z,73.9
2022-10-23T12:38:00.989Z,74.4
2022-10-23T12:39:01.145Z,76
2022-10-23T12:40:00.296Z,76.8
2022-10-23T12:41:00.438Z,76.3
2022-10-23T12:42:00.603Z,75.6
2022-10-23T12:43:00.743Z,75.8
2022-10-23T12:44:00.893Z,75.8
2022-10-23T12:45:01.032Z,76
2022-10-23T12:46:01.184Z,75.3
2022-10-23T12:47:00.358Z,74.7
2022-10-23T12:48:00.479Z,75.5
2022-10-23T12:49:00.630Z,76.2
2022-10-23T12:50:00.773Z,75.8
2022-10-23T12:51:00.922Z,75.7
2022-10-23T12:52:01.074Z,75.1
2022-10-23T12:53:01.208Z,75.1
2022-10-23T12:54:00.350Z,75.3
2022-10-23T12:55:00.494Z,74.4
2022-10-23T12:57:00.815Z,75.9
2022-10-23T12:58:00.961Z,75.6
2022-10-23T12:59:01.111Z,75.9
2022-10-23T13:00:01.246Z,76.2
2022-10-23T13:01:00.545Z,75.4
2022-10-23T13:02:00.609Z,75.9
2022-10-23T13:03:00.709Z,75
2022-10-23T13:04:00.830Z,75.1
2022-10-23T13:05:00.975Z,75.6
2022-10-23T13:06:01.151Z,76.3
2022-10-23T13:07:00.271Z,76
2022-10-23T13:08:00.420Z,75.5
2022-10-23T13:09:00.577Z,75.7
2022-10-23T13:10:00.717Z,76.5
2022-10-23T13:11:00.881Z,76.2
2022-10-23T13:12:01.005Z,75.4
2022-10-23T13:13:01.149Z,75.8
2022-10-23T13:14:00.292Z,76.3
2022-10-23T13:15:00.443Z,75
2022-10-23T13:16:00.592Z,74.8
2022-10-23T13:17:00.730Z,75.5
2022-10-23T13:18:00.877Z,74.5
2022-10-23T13:19:01.041Z,74.4
2022-10-23T13:20:01.174Z,74.7
2022-10-23T13:21:02.994Z,73.5
2022-10-23T13:22:00.451Z,75.4
2022-10-23T13:23:01.100Z,75.3
2022-10-23T13:24:00.778Z,73.2
2022-10-23T13:25:00.918Z,74